sensor_id;sensor_type;location;lat;lon;timestamp;temperature;humidity
44190;DHT22;29856;52.144;5.430;2023-06-14T00:01:34;20.30;89.50
44190;DHT22;29856;52.144;5.430;2023-06-14T00:04:02;20.20;90.10
44190;DHT22;29856;52.144;5.430;2023-06-14T00:06:28;20.20;90.10
44190;DHT22;29856;52.144;5.430;2023-06-14T00:08:54;20.10;90.30
44190;DHT22;29856;52.144;5.430;2023-06-14T00:11:20;20.10;90.20
44190;DHT22;29856;52.144;5.430;2023-06-14T00:13:45;20.10;90.40
44190;DHT22;29856;52.144;5.430;2023-06-14T00:16:14;20.00;90.30
44190;DHT22;29856;52.144;5.430;2023-06-14T00:18:39;20.00;90.60
44190;DHT22;29856;52.144;5.430;2023-06-14T00:21:05;19.90;90.20
44190;DHT22;29856;52.144;5.430;2023-06-14T00:23:31;19.90;90.40
44190;DHT22;29856;52.144;5.430;2023-06-14T00:25:56;19.90;90.50
44190;DHT22;29856;52.144;5.430;2023-06-14T00:28:22;19.90;90.80
44190;DHT22;29856;52.144;5.430;2023-06-14T00:30:49;20.00;90.50
44190;DHT22;29856;52.144;5.430;2023-06-14T00:33:14;19.90;90.60
44190;DHT22;29856;52.144;5.430;2023-06-14T00:35:40;19.90;90.50
44190;DHT22;29856;52.144;5.430;2023-06-14T00:38:05;20.00;90.50
44190;DHT22;29856;52.144;5.430;2023-06-14T00:40:31;20.00;90.40
44190;DHT22;29856;52.144;5.430;2023-06-14T00:42:56;20.00;90.20
44190;DHT22;29856;52.144;5.430;2023-06-14T00:45:22;19.90;90.30
44190;DHT22;29856;52.144;5.430;2023-06-14T00:47:47;19.90;90.40
44190;DHT22;29856;52.144;5.430;2023-06-14T00:50:15;19.90;90.60
44190;DHT22;29856;52.144;5.430;2023-06-14T00:52:40;19.80;90.40
44190;DHT22;29856;52.144;5.430;2023-06-14T00:55:06;19.80;90.80
44190;DHT22;29856;52.144;5.430;2023-06-14T00:57:32;19.70;90.90
44190;DHT22;29856;52.144;5.430;2023-06-14T00:59:57;19.60;91.10
44190;DHT22;29856;52.144;5.430;2023-06-14T01:02:23;19.50;91.30
44190;DHT22;29856;52.144;5.430;2023-06-14T01:04:50;19.50;91.30
44190;DHT22;29856;52.144;5.430;2023-06-14T01:07:40;19.50;91.50
44190;DHT22;29856;52.144;5.430;2023-06-14T01:15:21;19.20;91.90
44190;DHT22;29856;52.144;5.430;2023-06-14T01:17:49;19.20;92.30
44190;DHT22;29856;52.144;5.430;2023-06-14T01:20:15;19.20;92.20
44190;DHT22;29856;52.144;5.430;2023-06-14T01:22:59;19.20;92.20
44190;DHT22;29856;52.144;5.430;2023-06-14T01:25:25;19.20;92.30
44190;DHT22;29856;52.144;5.430;2023-06-14T01:27:53;19.20;92.40
44190;DHT22;29856;52.144;5.430;2023-06-14T01:30:21;19.20;92.40
44190;DHT22;29856;52.144;5.430;2023-06-14T01:32:49;19.10;92.30
44190;DHT22;29856;52.144;5.430;2023-06-14T01:35:15;19.10;92.40
44190;DHT22;29856;52.144;5.430;2023-06-14T01:37:40;19.10;92.50
44190;DHT22;29856;52.144;5.430;2023-06-14T01:40:07;19.00;93.20
44190;DHT22;29856;52.144;5.430;2023-06-14T01:42:36;19.00;93.00
44190;DHT22;29856;52.144;5.430;2023-06-14T01:45:04;19.00;93.00
44190;DHT22;29856;52.144;5.430;2023-06-14T01:47:31;19.00;93.20
44190;DHT22;29856;52.144;5.430;2023-06-14T01:49:58;18.90;93.10
44190;DHT22;29856;52.144;5.430;2023-06-14T01:52:23;18.90;93.10
44190;DHT22;29856;52.144;5.430;2023-06-14T01:54:49;18.80;93.20
44190;DHT22;29856;52.144;5.430;2023-06-14T01:57:14;18.70;93.70
44190;DHT22;29856;52.144;5.430;2023-06-14T01:59:40;18.70;93.60
44190;DHT22;29856;52.144;5.430;2023-06-14T02:02:05;18.60;94.00
44190;DHT22;29856;52.144;5.430;2023-06-14T02:04:31;18.60;94.20
44190;DHT22;29856;52.144;5.430;2023-06-14T02:06:56;18.60;94.10
44190;DHT22;29856;52.144;5.430;2023-06-14T02:09:22;18.60;94.20
44190;DHT22;29856;52.144;5.430;2023-06-14T02:11:47;18.60;94.00
44190;DHT22;29856;52.144;5.430;2023-06-14T02:14:13;18.60;93.90
44190;DHT22;29856;52.144;5.430;2023-06-14T02:16:38;18.60;94.20
44190;DHT22;29856;52.144;5.430;2023-06-14T02:19:04;18.70;94.00
44190;DHT22;29856;52.144;5.430;2023-06-14T02:21:29;18.60;94.10
44190;DHT22;29856;52.144;5.430;2023-06-14T02:23:55;18.60;94.30
44190;DHT22;29856;52.144;5.430;2023-06-14T02:26:20;18.60;94.50
44190;DHT22;29856;52.144;5.430;2023-06-14T02:28:46;18.60;95.40
44190;DHT22;29856;52.144;5.430;2023-06-14T02:31:11;18.60;94.40
44190;DHT22;29856;52.144;5.430;2023-06-14T02:33:37;18.60;95.10
44190;DHT22;29856;52.144;5.430;2023-06-14T02:36:02;18.60;95.50
44190;DHT22;29856;52.144;5.430;2023-06-14T02:38:28;18.60;94.90
44190;DHT22;29856;52.144;5.430;2023-06-14T02:40:53;18.60;95.50
44190;DHT22;29856;52.144;5.430;2023-06-14T02:43:19;18.60;96.20
44190;DHT22;29856;52.144;5.430;2023-06-14T02:45:44;18.50;95.80
44190;DHT22;29856;52.144;5.430;2023-06-14T02:48:10;18.40;96.40
44190;DHT22;29856;52.144;5.430;2023-06-14T02:50:35;18.40;96.20
44190;DHT22;29856;52.144;5.430;2023-06-14T02:53:01;18.30;96.50
44190;DHT22;29856;52.144;5.430;2023-06-14T02:55:26;18.40;96.40
44190;DHT22;29856;52.144;5.430;2023-06-14T02:57:51;18.20;96.60
44190;DHT22;29856;52.144;5.430;2023-06-14T03:00:17;18.20;96.50
44190;DHT22;29856;52.144;5.430;2023-06-14T03:02:43;18.20;97.00
44190;DHT22;29856;52.144;5.430;2023-06-14T03:05:08;18.10;96.60
44190;DHT22;29856;52.144;5.430;2023-06-14T03:07:34;18.10;96.70
44190;DHT22;29856;52.144;5.430;2023-06-14T03:09:59;18.10;96.50
44190;DHT22;29856;52.144;5.430;2023-06-14T03:12:25;18.00;97.10
44190;DHT22;29856;52.144;5.430;2023-06-14T03:14:50;18.00;97.30
44190;DHT22;29856;52.144;5.430;2023-06-14T03:17:16;17.90;97.20
44190;DHT22;29856;52.144;5.430;2023-06-14T03:19:41;17.90;97.20
44190;DHT22;29856;52.144;5.430;2023-06-14T03:22:06;17.90;97.20
44190;DHT22;29856;52.144;5.430;2023-06-14T03:24:33;17.90;97.90
44190;DHT22;29856;52.144;5.430;2023-06-14T03:26:58;17.90;97.40
44190;DHT22;29856;52.144;5.430;2023-06-14T03:29:24;17.90;97.30
44190;DHT22;29856;52.144;5.430;2023-06-14T03:32:00;17.90;97.60
44190;DHT22;29856;52.144;5.430;2023-06-14T03:34:26;17.90;97.60
44190;DHT22;29856;52.144;5.430;2023-06-14T03:36:52;17.90;97.40
44190;DHT22;29856;52.144;5.430;2023-06-14T03:39:17;17.80;97.40
44190;DHT22;29856;52.144;5.430;2023-06-14T03:41:43;17.80;97.50
44190;DHT22;29856;52.144;5.430;2023-06-14T03:44:08;17.70;98.10
44190;DHT22;29856;52.144;5.430;2023-06-14T03:46:33;17.70;97.80
44190;DHT22;29856;52.144;5.430;2023-06-14T03:48:59;17.70;98.10
44190;DHT22;29856;52.144;5.430;2023-06-14T03:51:24;17.70;97.80
44190;DHT22;29856;52.144;5.430;2023-06-14T03:53:50;17.70;98.80
44190;DHT22;29856;52.144;5.430;2023-06-14T03:56:15;17.70;98.60
44190;DHT22;29856;52.144;5.430;2023-06-14T03:58:41;17.80;98.40
44190;DHT22;29856;52.144;5.430;2023-06-14T04:01:06;17.70;98.80
44190;DHT22;29856;52.144;5.430;2023-06-14T04:03:32;17.70;98.80
44190;DHT22;29856;52.144;5.430;2023-06-14T04:05:57;17.70;98.20
44190;DHT22;29856;52.144;5.430;2023-06-14T04:08:23;17.70;99.50
44190;DHT22;29856;52.144;5.430;2023-06-14T04:10:48;17.70;98.90
44190;DHT22;29856;52.144;5.430;2023-06-14T04:13:14;17.60;98.80
44190;DHT22;29856;52.144;5.430;2023-06-14T04:15:39;17.60;99.90
44190;DHT22;29856;52.144;5.430;2023-06-14T04:18:05;17.60;99.40
44190;DHT22;29856;52.144;5.430;2023-06-14T04:20:30;17.50;99.70
44190;DHT22;29856;52.144;5.430;2023-06-14T04:22:56;17.50;99.90
44190;DHT22;29856;52.144;5.430;2023-06-14T04:25:22;17.50;99.90
44190;DHT22;29856;52.144;5.430;2023-06-14T04:27:47;17.50;99.90
44190;DHT22;29856;52.144;5.430;2023-06-14T04:30:13;17.50;99.90
44190;DHT22;29856;52.144;5.430;2023-06-14T04:32:38;17.50;99.90
44190;DHT22;29856;52.144;5.430;2023-06-14T04:35:05;17.60;99.90
44190;DHT22;29856;52.144;5.430;2023-06-14T04:37:31;17.60;99.90
44190;DHT22;29856;52.144;5.430;2023-06-14T04:39:57;17.70;99.90
44190;DHT22;29856;52.144;5.430;2023-06-14T04:42:23;17.70;99.90
44190;DHT22;29856;52.144;5.430;2023-06-14T04:44:48;17.70;99.90
44190;DHT22;29856;52.144;5.430;2023-06-14T04:47:14;17.80;99.90
44190;DHT22;29856;52.144;5.430;2023-06-14T04:49:39;17.80;99.90
44190;DHT22;29856;52.144;5.430;2023-06-14T04:52:05;17.90;99.90
44190;DHT22;29856;52.144;5.430;2023-06-14T04:54:30;18.00;99.90
44190;DHT22;29856;52.144;5.430;2023-06-14T04:56:56;18.20;99.90
44190;DHT22;29856;52.144;5.430;2023-06-14T04:59:21;18.30;99.90
44190;DHT22;29856;52.144;5.430;2023-06-14T05:01:47;18.30;99.90
44190;DHT22;29856;52.144;5.430;2023-06-14T05:04:12;18.50;99.70
44190;DHT22;29856;52.144;5.430;2023-06-14T05:06:38;18.60;99.70
44190;DHT22;29856;52.144;5.430;2023-06-14T05:09:03;18.70;99.80
44190;DHT22;29856;52.144;5.430;2023-06-14T05:11:29;18.80;98.40
44190;DHT22;29856;52.144;5.430;2023-06-14T05:13:54;19.00;99.00
44190;DHT22;29856;52.144;5.430;2023-06-14T05:16:20;19.20;98.70
44190;DHT22;29856;52.144;5.430;2023-06-14T05:18:45;19.30;97.90
44190;DHT22;29856;52.144;5.430;2023-06-14T05:21:11;19.30;97.10
44190;DHT22;29856;52.144;5.430;2023-06-14T05:23:36;19.50;98.00
44190;DHT22;29856;52.144;5.430;2023-06-14T05:26:02;19.60;97.60
44190;DHT22;29856;52.144;5.430;2023-06-14T05:28:27;19.70;97.20
44190;DHT22;29856;52.144;5.430;2023-06-14T05:30:53;19.80;97.30
44190;DHT22;29856;52.144;5.430;2023-06-14T05:33:18;19.70;97.40
44190;DHT22;29856;52.144;5.430;2023-06-14T05:35:44;19.80;97.90
44190;DHT22;29856;52.144;5.430;2023-06-14T05:38:09;19.90;97.70
44190;DHT22;29856;52.144;5.430;2023-06-14T05:40:35;20.00;97.20
44190;DHT22;29856;52.144;5.430;2023-06-14T05:43:00;20.10;96.50
44190;DHT22;29856;52.144;5.430;2023-06-14T05:45:26;20.00;95.20
44190;DHT22;29856;52.144;5.430;2023-06-14T05:47:52;20.00;95.70
44190;DHT22;29856;52.144;5.430;2023-06-14T05:50:17;19.90;95.90
44190;DHT22;29856;52.144;5.430;2023-06-14T05:52:43;20.00;96.80
44190;DHT22;29856;52.144;5.430;2023-06-14T05:55:09;19.80;94.50
44190;DHT22;29856;52.144;5.430;2023-06-14T05:57:34;19.80;95.70
44190;DHT22;29856;52.144;5.430;2023-06-14T06:00:00;19.90;96.00
44190;DHT22;29856;52.144;5.430;2023-06-14T06:02:25;19.90;94.70
44190;DHT22;29856;52.144;5.430;2023-06-14T06:04:50;20.00;94.70
44190;DHT22;29856;52.144;5.430;2023-06-14T06:07:16;19.90;93.40
44190;DHT22;29856;52.144;5.430;2023-06-14T06:09:41;19.80;94.30
44190;DHT22;29856;52.144;5.430;2023-06-14T06:12:07;19.90;93.90
44190;DHT22;29856;52.144;5.430;2023-06-14T06:14:33;20.00;94.70
44190;DHT22;29856;52.144;5.430;2023-06-14T06:16:58;20.10;94.40
44190;DHT22;29856;52.144;5.430;2023-06-14T06:19:24;20.00;93.00
44190;DHT22;29856;52.144;5.430;2023-06-14T06:21:50;20.10;92.90
44190;DHT22;29856;52.144;5.430;2023-06-14T06:24:15;20.10;92.20
44190;DHT22;29856;52.144;5.430;2023-06-14T06:26:41;20.20;92.80
44190;DHT22;29856;52.144;5.430;2023-06-14T06:29:07;20.20;92.20
44190;DHT22;29856;52.144;5.430;2023-06-14T06:31:32;20.30;92.30
44190;DHT22;29856;52.144;5.430;2023-06-14T06:33:58;20.40;92.70
44190;DHT22;29856;52.144;5.430;2023-06-14T06:36:23;20.60;92.60
44190;DHT22;29856;52.144;5.430;2023-06-14T06:38:48;20.60;91.70
44190;DHT22;29856;52.144;5.430;2023-06-14T06:41:14;20.60;91.10
44190;DHT22;29856;52.144;5.430;2023-06-14T06:43:39;20.70;91.40
44190;DHT22;29856;52.144;5.430;2023-06-14T06:46:05;20.80;91.70
44190;DHT22;29856;52.144;5.430;2023-06-14T06:48:30;21.00;90.80
44190;DHT22;29856;52.144;5.430;2023-06-14T06:50:56;21.10;91.20
44190;DHT22;29856;52.144;5.430;2023-06-14T06:53:21;21.30;91.10
44190;DHT22;29856;52.144;5.430;2023-06-14T06:55:47;21.40;88.70
44190;DHT22;29856;52.144;5.430;2023-06-14T06:58:13;21.40;87.80
44190;DHT22;29856;52.144;5.430;2023-06-14T07:00:39;21.50;89.90
44190;DHT22;29856;52.144;5.430;2023-06-14T07:03:05;21.80;90.00
44190;DHT22;29856;52.144;5.430;2023-06-14T07:05:30;21.90;87.70
44190;DHT22;29856;52.144;5.430;2023-06-14T07:07:56;22.10;88.50
44190;DHT22;29856;52.144;5.430;2023-06-14T07:10:22;22.30;86.90
44190;DHT22;29856;52.144;5.430;2023-06-14T07:12:47;22.20;86.00
44190;DHT22;29856;52.144;5.430;2023-06-14T07:15:13;22.00;82.80
44190;DHT22;29856;52.144;5.430;2023-06-14T07:17:38;21.70;84.20
44190;DHT22;29856;52.144;5.430;2023-06-14T07:20:04;21.90;85.10
44190;DHT22;29856;52.144;5.430;2023-06-14T07:22:30;22.00;85.20
44190;DHT22;29856;52.144;5.430;2023-06-14T07:24:55;21.90;83.80
44190;DHT22;29856;52.144;5.430;2023-06-14T07:27:21;22.10;84.80
44190;DHT22;29856;52.144;5.430;2023-06-14T07:29:46;22.30;85.70
44190;DHT22;29856;52.144;5.430;2023-06-14T07:32:12;22.30;82.80
44190;DHT22;29856;52.144;5.430;2023-06-14T07:34:37;22.30;83.10
44190;DHT22;29856;52.144;5.430;2023-06-14T07:37:03;22.50;83.30
44190;DHT22;29856;52.144;5.430;2023-06-14T07:39:28;22.60;84.20
44190;DHT22;29856;52.144;5.430;2023-06-14T07:41:54;22.60;84.40
44190;DHT22;29856;52.144;5.430;2023-06-14T07:44:19;22.70;82.50
44190;DHT22;29856;52.144;5.430;2023-06-14T07:46:45;22.70;83.00
44190;DHT22;29856;52.144;5.430;2023-06-14T07:49:10;22.80;80.90
44190;DHT22;29856;52.144;5.430;2023-06-14T07:51:36;22.90;81.20
44190;DHT22;29856;52.144;5.430;2023-06-14T07:54:01;22.80;79.70
44190;DHT22;29856;52.144;5.430;2023-06-14T07:56:27;23.10;79.90
44190;DHT22;29856;52.144;5.430;2023-06-14T07:58:52;23.40;78.90
44190;DHT22;29856;52.144;5.430;2023-06-14T08:01:17;23.30;78.10
44190;DHT22;29856;52.144;5.430;2023-06-14T08:03:43;23.20;78.20
44190;DHT22;29856;52.144;5.430;2023-06-14T08:06:09;23.60;79.00
44190;DHT22;29856;52.144;5.430;2023-06-14T08:08:34;23.70;77.30
44190;DHT22;29856;52.144;5.430;2023-06-14T08:11:00;23.70;76.40
44190;DHT22;29856;52.144;5.430;2023-06-14T08:13:26;23.80;76.00
44190;DHT22;29856;52.144;5.430;2023-06-14T08:15:51;23.90;75.30
44190;DHT22;29856;52.144;5.430;2023-06-14T08:18:17;23.60;75.40
44190;DHT22;29856;52.144;5.430;2023-06-14T08:20:42;23.80;75.20
44190;DHT22;29856;52.144;5.430;2023-06-14T08:23:08;23.90;76.40
44190;DHT22;29856;52.144;5.430;2023-06-14T08:25:33;24.00;75.20
44190;DHT22;29856;52.144;5.430;2023-06-14T08:27:59;23.90;74.40
44190;DHT22;29856;52.144;5.430;2023-06-14T08:30:24;24.10;73.50
44190;DHT22;29856;52.144;5.430;2023-06-14T08:32:50;24.00;73.20
44190;DHT22;29856;52.144;5.430;2023-06-14T08:35:15;24.10;74.10
44190;DHT22;29856;52.144;5.430;2023-06-14T08:37:41;24.30;72.50
44190;DHT22;29856;52.144;5.430;2023-06-14T08:40:19;24.30;73.00
44190;DHT22;29856;52.144;5.430;2023-06-14T08:42:47;24.40;70.80
44190;DHT22;29856;52.144;5.430;2023-06-14T08:45:13;24.30;71.00
44190;DHT22;29856;52.144;5.430;2023-06-14T08:47:38;24.40;70.90
44190;DHT22;29856;52.144;5.430;2023-06-14T08:50:04;24.40;69.50
44190;DHT22;29856;52.144;5.430;2023-06-14T08:52:33;24.50;70.00
44190;DHT22;29856;52.144;5.430;2023-06-14T08:55:03;24.70;69.70
44190;DHT22;29856;52.144;5.430;2023-06-14T08:57:28;25.00;69.50
44190;DHT22;29856;52.144;5.430;2023-06-14T08:59:54;24.90;70.60
44190;DHT22;29856;52.144;5.430;2023-06-14T09:02:20;25.10;71.90
44190;DHT22;29856;52.144;5.430;2023-06-14T09:04:46;25.30;71.10
44190;DHT22;29856;52.144;5.430;2023-06-14T09:07:12;25.10;69.10
44190;DHT22;29856;52.144;5.430;2023-06-14T09:09:41;25.30;68.50
44190;DHT22;29856;52.144;5.430;2023-06-14T09:12:08;25.30;66.90
44190;DHT22;29856;52.144;5.430;2023-06-14T09:14:35;25.00;69.90
44190;DHT22;29856;52.144;5.430;2023-06-14T09:17:00;25.20;67.10
44190;DHT22;29856;52.144;5.430;2023-06-14T09:19:26;25.30;67.90
44190;DHT22;29856;52.144;5.430;2023-06-14T09:21:52;25.30;67.40
44190;DHT22;29856;52.144;5.430;2023-06-14T09:24:18;25.10;66.50
44190;DHT22;29856;52.144;5.430;2023-06-14T09:26:46;25.00;65.00
44190;DHT22;29856;52.144;5.430;2023-06-14T09:29:11;25.00;65.70
44190;DHT22;29856;52.144;5.430;2023-06-14T09:31:37;25.20;65.60
44190;DHT22;29856;52.144;5.430;2023-06-14T09:34:03;25.50;64.60
44190;DHT22;29856;52.144;5.430;2023-06-14T09:36:31;25.60;63.80
44190;DHT22;29856;52.144;5.430;2023-06-14T09:38:58;25.50;63.60
44190;DHT22;29856;52.144;5.430;2023-06-14T09:41:34;25.60;63.00
44190;DHT22;29856;52.144;5.430;2023-06-14T09:44:02;25.90;63.00
44190;DHT22;29856;52.144;5.430;2023-06-14T09:46:28;25.90;62.90
44190;DHT22;29856;52.144;5.430;2023-06-14T09:48:54;26.20;63.60
44190;DHT22;29856;52.144;5.430;2023-06-14T09:51:25;26.10;62.60
44190;DHT22;29856;52.144;5.430;2023-06-14T09:53:51;26.10;64.60
44190;DHT22;29856;52.144;5.430;2023-06-14T09:56:32;26.20;66.00
44190;DHT22;29856;52.144;5.430;2023-06-14T09:58:59;25.90;65.10
44190;DHT22;29856;52.144;5.430;2023-06-14T10:01:30;26.00;64.90
44190;DHT22;29856;52.144;5.430;2023-06-14T10:04:06;26.20;66.10
44190;DHT22;29856;52.144;5.430;2023-06-14T10:06:35;25.90;62.10
44190;DHT22;29856;52.144;5.430;2023-06-14T10:09:01;25.90;63.40
44190;DHT22;29856;52.144;5.430;2023-06-14T10:11:28;25.70;63.90
44190;DHT22;29856;52.144;5.430;2023-06-14T10:13:58;25.80;64.00
44190;DHT22;29856;52.144;5.430;2023-06-14T10:19:21;26.30;64.10
44190;DHT22;29856;52.144;5.430;2023-06-14T10:22:02;26.00;63.10
44190;DHT22;29856;52.144;5.430;2023-06-14T10:24:34;26.30;63.60
44190;DHT22;29856;52.144;5.430;2023-06-14T10:27:03;26.30;64.00
44190;DHT22;29856;52.144;5.430;2023-06-14T10:29:29;26.30;63.20
44190;DHT22;29856;52.144;5.430;2023-06-14T10:31:59;26.50;64.50
44190;DHT22;29856;52.144;5.430;2023-06-14T10:34:26;26.50;64.50
44190;DHT22;29856;52.144;5.430;2023-06-14T10:37:18;26.50;64.20
44190;DHT22;29856;52.144;5.430;2023-06-14T10:39:44;26.60;65.90
44190;DHT22;29856;52.144;5.430;2023-06-14T10:42:10;26.80;62.80
44190;DHT22;29856;52.144;5.430;2023-06-14T10:44:42;26.90;64.20
44190;DHT22;29856;52.144;5.430;2023-06-14T10:47:10;26.90;64.60
44190;DHT22;29856;52.144;5.430;2023-06-14T10:49:49;26.90;62.00
44190;DHT22;29856;52.144;5.430;2023-06-14T10:52:15;26.50;63.30
44190;DHT22;29856;52.144;5.430;2023-06-14T10:55:02;26.20;62.90
44190;DHT22;29856;52.144;5.430;2023-06-14T10:57:27;26.50;61.80
44190;DHT22;29856;52.144;5.430;2023-06-14T10:59:53;26.40;62.90
44190;DHT22;29856;52.144;5.430;2023-06-14T11:05:04;26.20;63.90
44190;DHT22;29856;52.144;5.430;2023-06-14T11:13:03;26.70;64.00
44190;DHT22;29856;52.144;5.430;2023-06-14T11:15:29;26.60;63.80
44190;DHT22;29856;52.144;5.430;2023-06-14T11:17:55;26.80;65.30
44190;DHT22;29856;52.144;5.430;2023-06-14T11:20:24;26.90;63.20
44190;DHT22;29856;52.144;5.430;2023-06-14T11:22:51;26.90;62.50
44190;DHT22;29856;52.144;5.430;2023-06-14T11:25:17;26.90;63.10
44190;DHT22;29856;52.144;5.430;2023-06-14T11:27:42;27.10;64.00
44190;DHT22;29856;52.144;5.430;2023-06-14T11:30:09;27.00;61.50
44190;DHT22;29856;52.144;5.430;2023-06-14T11:32:35;26.90;64.40
44190;DHT22;29856;52.144;5.430;2023-06-14T11:35:00;27.00;61.80
44190;DHT22;29856;52.144;5.430;2023-06-14T11:37:28;26.90;62.10
44190;DHT22;29856;52.144;5.430;2023-06-14T11:39:56;27.00;61.90
44190;DHT22;29856;52.144;5.430;2023-06-14T11:42:21;27.00;63.80
44190;DHT22;29856;52.144;5.430;2023-06-14T11:44:47;27.00;62.40
44190;DHT22;29856;52.144;5.430;2023-06-14T11:47:12;26.90;62.40
44190;DHT22;29856;52.144;5.430;2023-06-14T11:49:38;26.90;62.10
44190;DHT22;29856;52.144;5.430;2023-06-14T11:52:04;27.10;62.10
44190;DHT22;29856;52.144;5.430;2023-06-14T11:54:29;27.30;62.90
44190;DHT22;29856;52.144;5.430;2023-06-14T11:56:55;27.40;60.90
44190;DHT22;29856;52.144;5.430;2023-06-14T11:59:20;27.20;60.80
44190;DHT22;29856;52.144;5.430;2023-06-14T12:01:47;27.30;61.80
44190;DHT22;29856;52.144;5.430;2023-06-14T12:04:13;27.20;61.50
44190;DHT22;29856;52.144;5.430;2023-06-14T12:06:39;27.20;61.70
44190;DHT22;29856;52.144;5.430;2023-06-14T12:09:05;27.20;62.40
44190;DHT22;29856;52.144;5.430;2023-06-14T12:11:33;27.10;61.40
44190;DHT22;29856;52.144;5.430;2023-06-14T12:13:58;27.60;62.60
44190;DHT22;29856;52.144;5.430;2023-06-14T12:16:30;27.60;61.50
44190;DHT22;29856;52.144;5.430;2023-06-14T12:18:56;27.10;62.00
44190;DHT22;29856;52.144;5.430;2023-06-14T12:21:25;27.40;62.50
44190;DHT22;29856;52.144;5.430;2023-06-14T12:23:51;27.40;63.60
44190;DHT22;29856;52.144;5.430;2023-06-14T12:26:19;27.80;62.60
44190;DHT22;29856;52.144;5.430;2023-06-14T12:28:45;27.70;62.70
44190;DHT22;29856;52.144;5.430;2023-06-14T12:31:12;27.30;62.90
44190;DHT22;29856;52.144;5.430;2023-06-14T12:33:38;27.10;63.80
44190;DHT22;29856;52.144;5.430;2023-06-14T12:36:05;27.50;63.30
44190;DHT22;29856;52.144;5.430;2023-06-14T12:38:30;27.80;64.60
44190;DHT22;29856;52.144;5.430;2023-06-14T12:40:56;28.10;63.70
44190;DHT22;29856;52.144;5.430;2023-06-14T12:43:21;28.30;62.10
44190;DHT22;29856;52.144;5.430;2023-06-14T12:45:47;28.30;63.00
44190;DHT22;29856;52.144;5.430;2023-06-14T12:48:12;28.30;61.10
44190;DHT22;29856;52.144;5.430;2023-06-14T12:50:38;28.40;60.50
44190;DHT22;29856;52.144;5.430;2023-06-14T12:53:03;28.10;60.90
44190;DHT22;29856;52.144;5.430;2023-06-14T12:55:29;28.20;60.60
44190;DHT22;29856;52.144;5.430;2023-06-14T12:57:54;27.70;59.70
44190;DHT22;29856;52.144;5.430;2023-06-14T13:00:20;27.50;59.80
44190;DHT22;29856;52.144;5.430;2023-06-14T13:02:45;27.40;59.50
44190;DHT22;29856;52.144;5.430;2023-06-14T13:05:11;27.90;58.80
44190;DHT22;29856;52.144;5.430;2023-06-14T13:07:36;28.10;59.30
44190;DHT22;29856;52.144;5.430;2023-06-14T13:10:02;28.00;59.00
44190;DHT22;29856;52.144;5.430;2023-06-14T13:12:28;28.20;57.30
44190;DHT22;29856;52.144;5.430;2023-06-14T13:14:53;28.10;59.20
44190;DHT22;29856;52.144;5.430;2023-06-14T13:17:18;27.80;57.30
44190;DHT22;29856;52.144;5.430;2023-06-14T13:19:44;27.60;58.70
44190;DHT22;29856;52.144;5.430;2023-06-14T13:22:09;27.70;58.50
44190;DHT22;29856;52.144;5.430;2023-06-14T13:24:35;28.00;59.50
44190;DHT22;29856;52.144;5.430;2023-06-14T13:27:00;28.10;59.70
44190;DHT22;29856;52.144;5.430;2023-06-14T13:29:26;28.00;60.80
44190;DHT22;29856;52.144;5.430;2023-06-14T13:31:53;28.30;60.30
44190;DHT22;29856;52.144;5.430;2023-06-14T13:34:18;28.00;59.50
44190;DHT22;29856;52.144;5.430;2023-06-14T13:36:44;27.70;60.50
44190;DHT22;29856;52.144;5.430;2023-06-14T13:39:09;28.00;60.60
44190;DHT22;29856;52.144;5.430;2023-06-14T13:41:35;27.90;60.90
44190;DHT22;29856;52.144;5.430;2023-06-14T13:44:01;27.40;63.20
44190;DHT22;29856;52.144;5.430;2023-06-14T13:46:26;27.40;63.30
44190;DHT22;29856;52.144;5.430;2023-06-14T13:48:52;27.30;61.50
44190;DHT22;29856;52.144;5.430;2023-06-14T13:51:18;27.20;61.00
44190;DHT22;29856;52.144;5.430;2023-06-14T13:53:46;27.30;60.90
44190;DHT22;29856;52.144;5.430;2023-06-14T13:56:11;27.30;61.60
44190;DHT22;29856;52.144;5.430;2023-06-14T13:58:38;27.30;60.30
44190;DHT22;29856;52.144;5.430;2023-06-14T14:01:03;27.70;61.50
44190;DHT22;29856;52.144;5.430;2023-06-14T14:03:28;27.50;58.70
44190;DHT22;29856;52.144;5.430;2023-06-14T14:05:54;27.50;61.00
44190;DHT22;29856;52.144;5.430;2023-06-14T14:08:19;27.60;61.40
44190;DHT22;29856;52.144;5.430;2023-06-14T14:10:45;27.80;59.50
44190;DHT22;29856;52.144;5.430;2023-06-14T14:13:10;27.70;60.80
44190;DHT22;29856;52.144;5.430;2023-06-14T14:15:36;27.90;60.90
44190;DHT22;29856;52.144;5.430;2023-06-14T14:18:01;28.00;59.50
44190;DHT22;29856;52.144;5.430;2023-06-14T14:20:29;27.90;59.20
44190;DHT22;29856;52.144;5.430;2023-06-14T14:22:54;28.00;60.80
44190;DHT22;29856;52.144;5.430;2023-06-14T14:25:20;27.70;61.20
44190;DHT22;29856;52.144;5.430;2023-06-14T14:27:45;28.00;60.30
44190;DHT22;29856;52.144;5.430;2023-06-14T14:30:11;28.10;60.00
44190;DHT22;29856;52.144;5.430;2023-06-14T14:32:37;28.40;59.50
44190;DHT22;29856;52.144;5.430;2023-06-14T14:35:02;28.10;60.20
44190;DHT22;29856;52.144;5.430;2023-06-14T14:37:28;27.90;58.90
44190;DHT22;29856;52.144;5.430;2023-06-14T14:39:53;27.90;60.10
44190;DHT22;29856;52.144;5.430;2023-06-14T14:42:19;27.90;58.60
44190;DHT22;29856;52.144;5.430;2023-06-14T14:44:44;28.00;59.40
44190;DHT22;29856;52.144;5.430;2023-06-14T14:47:10;28.10;59.70
44190;DHT22;29856;52.144;5.430;2023-06-14T14:49:35;28.30;59.90
44190;DHT22;29856;52.144;5.430;2023-06-14T14:52:01;28.20;59.10
44190;DHT22;29856;52.144;5.430;2023-06-14T14:54:26;27.90;58.80
44190;DHT22;29856;52.144;5.430;2023-06-14T14:56:51;28.10;57.50
44190;DHT22;29856;52.144;5.430;2023-06-14T14:59:17;27.90;58.20
44190;DHT22;29856;52.144;5.430;2023-06-14T15:01:43;28.00;58.50
44190;DHT22;29856;52.144;5.430;2023-06-14T15:04:08;28.40;57.90
44190;DHT22;29856;52.144;5.430;2023-06-14T15:06:34;28.30;57.80
44190;DHT22;29856;52.144;5.430;2023-06-14T15:08:59;28.10;59.40
44190;DHT22;29856;52.144;5.430;2023-06-14T15:11:25;28.10;58.40
44190;DHT22;29856;52.144;5.430;2023-06-14T15:13:50;28.50;58.60
44190;DHT22;29856;52.144;5.430;2023-06-14T15:16:16;28.30;58.70
44190;DHT22;29856;52.144;5.430;2023-06-14T15:18:41;28.50;57.90
44190;DHT22;29856;52.144;5.430;2023-06-14T15:21:06;28.50;58.00
44190;DHT22;29856;52.144;5.430;2023-06-14T15:23:32;28.00;58.10
44190;DHT22;29856;52.144;5.430;2023-06-14T15:25:57;27.80;59.20
44190;DHT22;29856;52.144;5.430;2023-06-14T15:28:23;27.90;58.60
44190;DHT22;29856;52.144;5.430;2023-06-14T15:30:48;27.90;58.90
44190;DHT22;29856;52.144;5.430;2023-06-14T15:33:14;28.10;58.90
44190;DHT22;29856;52.144;5.430;2023-06-14T15:35:39;28.10;59.00
44190;DHT22;29856;52.144;5.430;2023-06-14T15:38:05;27.80;59.30
44190;DHT22;29856;52.144;5.430;2023-06-14T15:40:30;27.80;57.80